首页
METAR-TAF:

METAR-TAF

机场 :

奧克蘭國際機場

奥克兰, 加利福尼亚州, 美国

纬度: 37-43-10N, 经度: 122-14-07W, 海拔: 1米

当前天气观测

该预报发布于40分钟前的16:53 UTC
风速7节,风向西转西北
温度 19°C
湿度 68%
气压 1013 hPa
能見度: 16.1公里
少量云层高于3000英尺

METAR: KOAK 241653Z 29007KT 10SM FEW030 19/13 A2992 RMK AO2 SLP132 T01890128

时间: 10:33 (17:33 UTC)

预报

该预报发布于6小时和10分钟前的11:23 UTC
预报有效从24日的 12点(UTC)到 25日的 18点(UTC)
风速8节,风向西转西北
能見度: 10公里
天空无云
从 24日的 1300点(UTC)
风速5节,风向西转西北
能見度: 9.7公里
散云层高于700英尺
轻雾
从 24日的 1900点(UTC)
风速16节,风向西转西北
能見度: 10公里
多云层高于14000英尺
从 25日的 0400点(UTC)
风速10节,风向西转西北
能見度: 10公里
多云层高于20000英尺
从 25日的 0900点(UTC)
风速5节,风向西转西北
能見度: 10公里
散云层高于20000英尺

TAF: KOAK 241123Z 2412/2518 29008KT P6SM SKC FM241300 30005KT 6SM BR SCT007 FM241900 29016KT P6SM BKN140 FM250400 29010KT P6SM BKN200 FM250900 30005KT P6SM SCT200

超过4000个机场的气象观测和天气预报(METAR&TAF报告)。

可查询的气象台以黄色和红色小点在地图上表示。

将鼠标移到小点上方,可查看气象台名称。

然后点击查看天气观测和预报。

如需切换地图:点击带黑十字的绿色按钮放大地图;点击带横线的绿色按钮缩小地图;或者点击绿色箭头查看邻近地区的地图。


METAR-TAF: